Time;durP1;ratioP1;P1;durP2;ratioP2;P2;SDS_P1;SDS_P2;PMS_P1;PMS_P2;Temp;Humidity;BMP_temperature;BMP_pressure;BME280_temperature;BME280_humidity;BME280_pressure;Samples;Min_cycle;Max_cycle;Signal;HPM_P1;HPM_P2
2022/04/29 00:00:51;;;;;;;4.50;2.75;;;;;;;5.54;58.90;100176.09;4994100;28;20049;-75
2022/04/29 00:03:17;;;;;;;4.35;2.50;;;;;;;5.51;59.17;100176.00;5008936;28;20115;-75
2022/04/29 00:05:43;;;;;;;5.28;2.35;;;;;;;5.41;59.61;100166.34;4993029;28;20042;-74
2022/04/29 00:08:09;;;;;;;;;;;;;;;5.41;59.69;100181.78;4990162;28;20046;-75
2022/04/29 00:10:35;;;;;;;5.03;2.28;;;;;;;5.41;59.44;100181.78;4974577;28;19918;-75
2022/04/29 00:13:02;;;;;;;3.00;2.10;;;;;;;5.30;59.12;100160.91;4984205;28;20026;-74
2022/04/29 00:15:28;;;;;;;5.30;1.98;;;;;;;5.45;59.18;100186.16;5008148;28;20497;-75
2022/04/29 00:17:54;;;;;;;5.28;2.30;;;;;;;5.46;58.76;100185.31;4964640;28;20085;-74
2022/04/29 00:20:20;;;;;;;6.63;2.38;;;;;;;5.34;59.26;100172.16;5004870;28;20074;-74
2022/04/29 00:22:45;;;;;;;7.78;2.50;;;;;;;5.31;59.03;100154.06;5008539;28;20057;-74
2022/04/29 00:25:11;;;;;;;4.72;2.88;;;;;;;5.46;59.12;100185.31;5020884;28;20038;-74
2022/04/29 00:27:38;;;;;;;5.22;2.58;;;;;;;5.34;59.02;100174.72;5011074;28;20054;-74
2022/04/29 00:30:04;;;;;;;4.97;2.58;;;;;;;5.41;59.14;100181.78;5008314;28;20050;-75
2022/04/29 00:32:30;;;;;;;4.85;2.42;;;;;;;5.41;59.61;100178.34;5025033;28;20038;-74
2022/04/29 00:34:56;;;;;;;3.30;2.22;;;;;;;5.38;59.43;100181.69;5020107;28;20057;-74
2022/04/29 00:37:21;;;;;;;5.07;2.38;;;;;;;5.19;60.07;100148.63;4984542;28;20053;-74
2022/04/29 00:39:47;;;;;;;7.80;2.90;;;;;;;5.15;61.06;100175.09;4993493;28;20624;-74
2022/04/29 00:42:15;;;;;;;3.20;2.50;;;;;;;4.97;61.36;100134.34;5024967;28;20038;-75
2022/04/29 00:44:42;;;;;;;4.38;2.33;;;;;;;5.21;61.60;100181.25;4991477;28;20042;-75
2022/04/29 00:47:15;;;;;;;3.50;2.25;;;;;;;5.07;61.92;100172.31;4993878;28;20457;-75
2022/04/29 00:49:41;;;;;;;6.30;2.90;;;;;;;5.06;61.95;100181.72;5007451;28;20381;-75
2022/04/29 00:52:11;;;;;;;4.55;2.65;;;;;;;4.96;62.47;100166.91;5018637;28;20039;-75
2022/04/29 00:54:38;;;;;;;4.82;2.80;;;;;;;5.03;62.56;100168.78;5000652;28;20163;-74
2022/04/29 00:57:09;;;;;;;6.13;2.92;;;;;;;5.00;62.41;100160.13;5010528;28;20030;-75
2022/04/29 00:59:39;;;;;;;3.97;2.70;;;;;;;5.06;62.28;100162.88;4991114;28;20046;-75
2022/04/29 01:02:05;;;;;;;8.40;2.90;;;;;;;4.94;62.51;100147.09;4992550;28;20038;-75
2022/04/29 01:04:56;;;;;;;7.25;3.05;;;;;;;4.89;62.56;100141.84;5007838;28;20026;-75
2022/04/29 01:07:22;;;;;;;5.07;3.03;;;;;;;4.91;62.43;100153.06;5004119;28;20054;-73
2022/04/29 01:09:48;;;;;;;6.95;3.55;;;;;;;4.86;62.88;100152.06;5007700;28;20497;-75
2022/04/29 01:12:14;;;;;;;;;;;;;;;4.91;63.23;100165.91;4975624;28;20042;-74
2022/04/29 01:14:40;;;;;;;9.65;3.08;;;;;;;4.87;62.83;100156.38;4992264;28;19920;-75
2022/04/29 01:17:06;;;;;;;5.85;2.92;;;;;;;4.85;62.77;100158.88;5023747;28;20084;-74
2022/04/29 01:19:31;;;;;;;4.93;2.63;;;;;;;4.83;63.19;100157.13;4990897;28;20042;-76
2022/04/29 01:22:00;;;;;;;7.00;2.75;;;;;;;4.85;63.42;100158.88;5012573;28;20038;-76
2022/04/29 01:24:26;;;;;;;7.50;3.13;;;;;;;4.84;63.78;100156.28;4973798;28;20073;-74
2022/04/29 01:26:52;;;;;;;6.30;2.80;;;;;;;4.68;64.53;100149.88;5013456;28;20046;-76
2022/04/29 01:29:19;;;;;;;5.10;3.30;;;;;;;4.50;65.19;100150.22;5001748;28;20035;-73
2022/04/29 01:31:45;;;;;;;6.03;3.17;;;;;;;4.56;65.52;100163.22;4956308;28;20487;-74
2022/04/29 01:34:11;;;;;;;9.50;3.25;;;;;;;4.48;65.43;100146.72;4984755;28;20096;-74
2022/04/29 01:36:37;;;;;;;4.32;2.78;;;;;;;4.49;65.52;100145.03;5023660;28;20038;-74
2022/04/29 01:39:03;;;;;;;6.28;3.38;;;;;;;4.51;66.00;100156.22;4991181;28;20074;-74
2022/04/29 01:41:29;;;;;;;6.07;2.83;;;;;;;4.41;65.96;100138.81;4988835;28;20552;-74
2022/04/29 01:43:56;;;;;;;5.10;2.58;;;;;;;4.44;66.33;100159.44;4964671;28;20124;-74
2022/04/29 01:46:22;;;;;;;7.32;3.25;;;;;;;4.39;66.79;100161.88;5023400;28;20054;-75
2022/04/29 01:49:06;;;;;;;5.93;3.38;;;;;;;4.50;66.17;100160.50;5019592;28;20052;-75
2022/04/29 01:51:35;;;;;;;8.35;3.30;;;;;;;4.39;66.21;100166.16;4990486;28;20042;-75
2022/04/29 01:54:01;;;;;;;6.35;3.20;;;;;;;4.38;66.32;100172.13;4991262;28;20089;-74
2022/04/29 01:56:33;;;;;;;4.72;2.40;;;;;;;4.36;66.20;100160.94;5008099;28;20137;-75
2022/04/29 01:59:01;;;;;;;8.13;2.88;;;;;;;4.39;65.96;100154.16;5005335;28;20038;-74
2022/04/29 02:01:29;;;;;;;3.47;2.40;;;;;;;4.28;66.36;100153.00;4973042;28;20125;-75
2022/04/29 02:03:55;;;;;;;4.47;2.67;;;;;;;4.23;67.42;100159.72;4980780;28;20046;-75
2022/04/29 02:06:22;;;;;;;8.25;5.93;;;;;;;4.30;67.34;100167.63;5011282;28;20033;-74
2022/04/29 02:08:48;;;;;;;10.40;5.18;;;;;;;4.23;68.08;100165.72;5027389;28;20512;-73
2022/04/29 02:11:17;;;;;;;5.53;3.40;;;;;;;4.16;68.03;100174.03;5027692;28;20031;-74
2022/04/29 02:13:46;;;;;;;5.97;3.15;;;;;;;4.18;68.29;100181.81;4995940;28;20069;-74
2022/04/29 02:16:22;;;;;;;7.60;4.78;;;;;;;4.05;68.90;100167.72;5017656;28;20041;-75
2022/04/29 02:18:47;;;;;;;5.90;3.15;;;;;;;4.01;69.16;100163.31;4972447;28;20493;-75
2022/04/29 02:21:13;;;;;;;5.35;3.22;;;;;;;4.09;69.12;100174.72;5027765;28;20464;-75
2022/04/29 02:23:39;;;;;;;8.93;3.45;;;;;;;4.00;69.15;100165.03;5010959;28;20070;-73
2022/04/29 02:26:05;;;;;;;7.53;3.67;;;;;;;4.00;69.57;100179.56;5002727;28;20042;-74
2022/04/29 02:28:32;;;;;;;6.00;3.40;;;;;;;3.93;70.17;100175.91;4975094;28;20042;-74
2022/04/29 02:30:58;;;;;;;5.03;3.33;;;;;;;3.92;70.09;100174.19;4961106;28;20085;-74
2022/04/29 02:33:24;;;;;;;7.03;3.47;;;;;;;3.88;70.38;100185.19;4978334;28;20053;-74
2022/04/29 02:35:50;;;;;;;5.82;3.42;;;;;;;3.85;70.85;100189.34;4996824;28;20054;-74
2022/04/29 02:38:16;;;;;;;;;;;;;;;3.92;71.05;100193.84;5010510;28;20482;-73
2022/04/29 02:40:41;;;;;;;4.78;3.30;;;;;;;3.87;70.67;100188.56;5026972;28;20012;-75
2022/04/29 02:43:07;;;;;;;5.78;3.95;;;;;;;3.82;70.92;100191.00;4994830;28;20501;-75
2022/04/29 02:45:33;;;;;;;6.90;3.65;;;;;;;3.63;70.88;100157.03;5026578;28;20120;-75
2022/04/29 02:47:59;;;;;;;5.45;4.28;;;;;;;3.84;71.00;100183.34;5009937;28;20141;-74
2022/04/29 02:50:26;;;;;;;4.78;3.28;;;;;;;3.93;70.82;100190.44;5010624;28;20042;-75
2022/04/29 02:52:57;;;;;;;7.40;3.70;;;;;;;3.77;70.91;100171.16;5025513;28;20441;-74
2022/04/29 02:55:23;;;;;;;7.88;3.90;;;;;;;3.89;71.13;100199.75;4981396;28;20042;-75
2022/04/29 02:58:09;;;;;;;5.60;3.67;;;;;;;3.93;70.67;100190.44;4995888;28;20070;-75
2022/04/29 03:00:35;;;;;;;17.42;3.75;;;;;;;3.88;70.63;100198.00;4963177;28;20521;-75
2022/04/29 03:03:01;;;;;;;11.35;3.85;;;;;;;3.83;70.37;100191.88;4975973;28;20086;-75
2022/04/29 03:05:27;;;;;;;8.38;3.72;;;;;;;3.87;69.96;100200.53;4996404;28;20096;-75
2022/04/29 03:07:53;;;;;;;8.30;3.45;;;;;;;3.85;70.07;100197.94;4994715;28;20232;-75
2022/04/29 03:10:19;;;;;;;9.15;6.03;;;;;;;3.79;70.19;100188.31;4976150;28;20137;-75
2022/04/29 03:12:45;;;;;;;4.70;3.15;;;;;;;3.93;69.73;100199.03;4984150;28;20157;-75
2022/04/29 03:15:34;;;;;;;6.03;3.33;;;;;;;3.88;69.65;100207.41;4999781;28;20051;-75
2022/04/29 03:18:20;;;;;;;6.65;4.05;;;;;;;3.78;70.42;100201.13;4983563;28;20042;-75
2022/04/29 03:20:53;;;;;;;7.03;3.40;;;;;;;3.85;71.11;100207.31;4978204;28;20525;-75
2022/04/29 03:23:18;;;;;;;4.70;3.42;;;;;;;3.91;71.48;100215.22;4944898;29;20035;-75
2022/04/29 03:25:52;;;;;;;5.65;3.42;;;;;;;3.91;71.27;100213.50;5002890;28;20552;-75
2022/04/29 03:28:18;;;;;;;5.78;4.22;;;;;;;3.85;71.27;100213.34;5015557;28;20046;-74
2022/04/29 03:30:45;;;;;;;7.18;3.83;;;;;;;4.04;72.46;100213.06;5023010;28;20042;-77
2022/04/29 03:33:11;;;;;;;8.02;3.90;;;;;;;3.90;70.80;100204.09;5009028;28;20508;-74
2022/04/29 03:35:47;;;;;;;7.82;4.20;;;;;;;3.89;71.62;100214.28;5008920;28;20100;-75
2022/04/29 03:38:42;;;;;;;9.82;3.80;;;;;;;3.95;71.32;100217.94;4987523;28;20058;-75
2022/04/29 03:41:09;;;;;;;8.60;4.50;;;;;;;3.89;71.30;100193.75;4950652;28;20469;-74
2022/04/29 03:43:36;;;;;;;8.40;4.30;;;;;;;4.03;71.27;100207.88;4978935;28;20459;-75
2022/04/29 03:46:05;;;;;;;11.63;5.22;;;;;;;4.14;71.02;100200.53;5023270;28;20072;-75
2022/04/29 03:51:48;;;;;;;8.88;4.50;;;;;;;4.27;69.94;100207.78;4990473;28;20038;-75
2022/04/29 03:54:14;;;;;;;9.25;3.47;;;;;;;4.40;68.72;100221.81;4964189;28;20052;-74
2022/04/29 03:56:45;;;;;;;6.38;3.53;;;;;;;4.46;68.05;100219.47;5008200;28;20030;-74
2022/04/29 03:59:12;;;;;;;;;;;;;;;4.53;67.28;100221.34;5022918;28;20054;-75
2022/04/29 04:01:38;;;;;;;9.45;3.35;;;;;;;4.55;66.59;100210.31;5019642;28;19921;-76
2022/04/29 04:04:05;;;;;;;6.93;3.05;;;;;;;4.65;65.73;100210.56;5008624;28;20058;-77
2022/04/29 04:06:49;;;;;;;11.05;3.85;;;;;;;4.74;65.38;100219.41;4980435;28;20089;-75
2022/04/29 04:09:18;;;;;;;8.50;3.70;;;;;;;4.81;65.03;100226.47;5024610;28;20100;-74
2022/04/29 04:11:44;;;;;;;6.88;4.03;;;;;;;4.73;65.23;100197.13;4993329;28;20064;-75
2022/04/29 04:14:18;;;;;;;8.27;4.20;;;;;;;4.79;65.45;100202.41;5007728;28;20413;-75
2022/04/29 04:16:46;;;;;;;6.70;3.72;;;;;;;4.95;65.51;100225.97;5008042;28;20038;-74
2022/04/29 04:19:12;;;;;;;9.32;3.65;;;;;;;4.94;65.35;100219.97;4995046;28;20026;-75
2022/04/29 04:21:39;;;;;;;9.32;3.80;;;;;;;4.96;65.07;100210.59;4991633;28;20046;-74
2022/04/29 04:24:06;;;;;;;11.15;4.03;;;;;;;5.07;65.40;100224.59;5008653;28;20500;-74
2022/04/29 04:26:32;;;;;;;8.50;4.05;;;;;;;5.18;64.88;100230.06;4980483;28;20039;-75
2022/04/29 04:29:01;;;;;;;7.65;3.80;;;;;;;5.20;65.30;100227.50;5000588;28;20474;-75
2022/04/29 04:31:35;;;;;;;10.75;4.40;;;;;;;5.08;64.73;100200.63;5024737;28;20052;-74
2022/04/29 04:34:49;;;;;;;7.13;3.55;;;;;;;5.24;65.00;100224.19;4991711;28;20038;-75
2022/04/29 04:36:49;;;;;;;;;;;;;;;5.22;64.44;100226.75;5006138;28;20046;-74
2022/04/29 04:39:14;;;;;;;9.83;4.10;;;;;;;5.19;63.89;100211.22;5008869;28;20407;-74
2022/04/29 04:41:40;;;;;;;7.65;3.83;;;;;;;5.24;64.01;100219.91;5024825;28;20042;-75
2022/04/29 04:44:08;;;;;;;10.30;3.45;;;;;;;5.30;64.21;100225.22;5008777;28;20041;-76
2022/04/29 04:46:36;;;;;;;7.22;3.88;;;;;;;5.19;63.55;100198.34;4991834;28;20493;-76
2022/04/29 04:49:13;;;;;;;6.68;3.63;;;;;;;5.50;63.10;100230.91;4991483;28;20496;-76
2022/04/29 04:51:55;;;;;;;7.93;3.42;;;;;;;5.53;62.65;100232.66;5010735;28;20034;-75
2022/04/29 04:54:21;;;;;;;14.25;4.07;;;;;;;5.41;62.65;100216.94;4991862;28;20038;-75
2022/04/29 04:56:47;;;;;;;7.35;3.65;;;;;;;5.43;62.58;100230.69;5007892;28;20074;-75
2022/04/29 04:59:13;;;;;;;5.65;3.50;;;;;;;5.42;61.98;100232.41;5024463;28;20038;-76
2022/04/29 05:01:38;;;;;;;13.35;4.88;;;;;;;5.29;62.12;100225.19;4991767;28;20034;-75
2022/04/29 05:04:16;;;;;;;7.72;3.40;;;;;;;5.38;62.46;100233.16;5006559;28;20509;-75
2022/04/29 05:07:01;;;;;;;9.10;3.50;;;;;;;5.40;62.09;100231.47;5020123;28;20060;-74
2022/04/29 05:09:27;;;;;;;12.23;4.22;;;;;;;5.49;61.46;100235.97;5024394;28;20045;-75
2022/04/29 05:11:53;;;;;;;;;;;;;;;5.48;60.57;100232.53;4994481;28;20034;-75
2022/04/29 05:14:38;;;;;;;7.93;3.50;;;;;;;5.56;61.13;100241.34;5005571;28;19921;-75
2022/04/29 05:17:04;;;;;;;5.65;3.60;;;;;;;5.55;59.53;100229.31;4991505;28;20106;-74
2022/04/29 05:20:03;;;;;;;11.35;3.67;;;;;;;5.73;60.15;100246.91;4991607;28;20038;-75
2022/04/29 05:22:31;;;;;;;7.65;3.55;;;;;;;5.75;59.24;100241.78;5024137;28;20097;-77
2022/04/29 05:24:57;;;;;;;;;;;;;;;5.67;57.53;100244.16;4991711;28;20521;-76
2022/04/29 05:27:41;;;;;;;7.07;3.38;;;;;;;5.71;57.59;100242.53;5006221;28;19929;-74
2022/04/29 05:30:27;;;;;;;6.65;3.40;;;;;;;5.61;57.79;100232.03;5001431;28;20104;-76
2022/04/29 05:33:11;;;;;;;6.25;2.75;;;;;;;5.71;56.34;100243.41;5005504;28;20436;-74
2022/04/29 05:35:56;;;;;;;6.22;2.97;;;;;;;5.74;55.42;100233.19;5017819;28;20121;-75
2022/04/29 05:44:09;;;;;;;6.13;3.20;;;;;;;5.96;52.17;100242.34;4966606;28;20409;-75
2022/04/29 05:46:35;;;;;;;;;;;;;;;5.96;50.50;100244.06;4989363;28;20385;-75
2022/04/29 05:49:03;;;;;;;29.58;4.15;;;;;;;6.04;51.02;100243.38;5024380;28;19961;-75
2022/04/29 05:51:30;;;;;;;10.10;2.72;;;;;;;5.95;51.06;100225.13;4991125;28;20046;-75
2022/04/29 05:53:56;;;;;;;;;;;;;;;6.02;48.66;100239.91;4993203;28;20043;-75
2022/04/29 05:56:21;;;;;;;3.72;2.30;;;;;;;6.14;49.19;100247.06;5007804;28;19921;-76
2022/04/29 05:58:47;;;;;;;7.75;2.55;;;;;;;6.02;49.02;100229.59;4992804;28;20049;-76
2022/04/29 06:01:31;;;;;;;3.90;2.10;;;;;;;6.17;46.77;100244.53;5006078;28;20091;-74
2022/04/29 06:03:57;;;;;;;7.85;2.28;;;;;;;6.20;46.89;100248.91;4991723;28;20034;-74
2022/04/29 06:06:23;;;;;;;5.38;2.33;;;;;;;6.19;46.42;100229.13;4995794;28;20031;-78
2022/04/29 06:08:49;;;;;;;4.93;2.08;;;;;;;6.18;45.25;100219.63;4976263;28;20193;-76
2022/04/29 06:11:15;;;;;;;5.55;1.80;;;;;;;6.31;42.92;100232.84;4975309;28;20525;-75
2022/04/29 06:13:42;;;;;;;2.95;1.48;;;;;;;6.37;42.58;100237.28;4991381;28;20066;-76
2022/04/29 06:16:28;;;;;;;;;;;;;;;6.45;41.23;100246.03;5018238;28;20042;-75
2022/04/29 06:19:32;;;;;;;3.95;1.50;;;;;;;6.41;39.56;100221.00;5020970;28;20339;-75
2022/04/29 06:22:09;;;;;;;3.65;1.80;;;;;;;6.54;40.44;100235.91;5009946;28;20057;-74
2022/04/29 06:24:40;;;;;;;3.63;1.83;;;;;;;6.56;40.29;100223.94;4983376;28;20052;-76
2022/04/29 06:27:07;;;;;;;5.63;1.63;;;;;;;6.75;38.49;100234.63;4990965;28;20142;-75
2022/04/29 06:29:33;;;;;;;2.55;1.60;;;;;;;6.73;37.93;100215.66;4974072;28;20077;-77
2022/04/29 06:32:00;;;;;;;4.95;2.30;;;;;;;6.87;38.02;100219.38;4991258;28;20049;-75
2022/04/29 06:34:44;;;;;;;5.78;1.90;;;;;;;6.90;38.80;100206.56;5018893;28;20074;-75
2022/04/29 06:37:10;;;;;;;2.15;1.30;;;;;;;7.10;38.69;100220.72;5007073;28;20045;-75
2022/04/29 06:39:40;;;;;;;5.93;1.70;;;;;;;6.94;39.22;100199.75;5006520;28;20092;-76
2022/04/29 06:42:32;;;;;;;4.00;1.90;;;;;;;7.05;40.06;100212.00;4990661;28;20044;-75
2022/04/29 06:45:24;;;;;;;3.53;1.90;;;;;;;7.25;39.85;100222.72;4969361;28;20563;-74
2022/04/29 06:48:08;;;;;;;3.75;1.50;;;;;;;7.19;38.63;100201.94;4995485;28;20061;-75
2022/04/29 06:50:53;;;;;;;3.53;1.75;;;;;;;7.24;39.30;100225.25;4995572;28;20056;-76
2022/04/29 06:53:33;;;;;;;5.35;1.58;;;;;;;7.21;39.29;100210.59;5018190;28;20460;-76
2022/04/29 06:56:01;;;;;;;3.63;1.70;;;;;;;7.41;38.94;100222.97;4954026;28;20124;-77
2022/04/29 06:58:27;;;;;;;3.42;1.80;;;;;;;7.31;38.30;100211.63;4996781;28;20029;-75
2022/04/29 07:00:53;;;;;;;5.47;3.75;;;;;;;7.55;38.10;100217.19;4994252;28;20038;-78
2022/04/29 07:03:18;;;;;;;4.15;1.77;;;;;;;7.76;37.26;100197.75;4977792;28;20093;-75
2022/04/29 07:05:44;;;;;;;4.38;1.85;;;;;;;7.87;36.46;100193.63;5003037;28;20118;-76
2022/04/29 07:08:14;;;;;;;6.28;1.98;;;;;;;7.87;36.22;100216.84;4947352;29;20039;-76
2022/04/29 07:11:00;;;;;;;4.45;1.90;;;;;;;8.08;34.81;100240.44;4994563;28;20057;-75
2022/04/29 07:13:54;;;;;;;4.20;1.60;;;;;;;8.30;33.93;100202.00;5026934;28;20596;-75
2022/04/29 07:16:20;;;;;;;4.82;1.80;;;;;;;8.58;33.15;100217.06;4994526;28;20043;-77
2022/04/29 07:19:06;;;;;;;4.53;1.70;;;;;;;8.56;33.66;100231.66;4994385;28;20488;-75
2022/04/29 07:21:32;;;;;;;;;;;;;;;8.50;33.43;100226.44;4986383;28;20110;-74
2022/04/29 07:24:00;;;;;;;6.45;2.10;;;;;;;8.34;33.79;100234.81;4988277;28;20388;-76
2022/04/29 07:26:30;;;;;;;4.38;1.88;;;;;;;8.26;34.32;100210.56;4966856;28;20055;-76
2022/04/29 07:28:56;;;;;;;2.92;1.60;;;;;;;8.42;34.20;100230.63;5014606;28;20069;-76
2022/04/29 07:31:28;;;;;;;3.95;1.65;;;;;;;8.26;33.83;100202.81;4983499;28;20034;-77
2022/04/29 07:34:14;;;;;;;3.13;1.70;;;;;;;8.34;33.92;100189.16;5006727;28;20060;-75
2022/04/29 07:42:37;;;;;;;5.65;1.70;;;;;;;8.34;33.09;100190.88;5007424;28;20049;-75
2022/04/29 07:45:04;;;;;;;4.05;1.88;;;;;;;8.46;33.59;100219.47;4977660;28;20026;-76
2022/04/29 07:47:53;;;;;;;3.08;1.63;;;;;;;8.93;32.87;100198.50;5003092;28;20533;-76
2022/04/29 07:50:29;;;;;;;2.97;1.70;;;;;;;9.47;32.01;100214.56;4993301;28;20049;-75
2022/04/29 07:52:56;;;;;;;3.53;1.83;;;;;;;9.90;31.73;100215.81;4978546;28;20413;-76
2022/04/29 07:55:23;;;;;;;3.85;1.42;;;;;;;10.26;30.57;100206.56;5022744;28;20030;-77
2022/04/29 07:57:49;;;;;;;;;;;;;;;10.51;30.32;100203.25;5009873;28;20050;-76
2022/04/29 08:00:15;;;;;;;4.60;1.90;;;;;;;10.41;28.98;100176.41;5009327;28;19921;-79
2022/04/29 08:02:43;;;;;;;3.42;1.75;;;;;;;10.69;29.98;100197.28;5009810;28;20048;-75
2022/04/29 08:05:11;;;;;;;4.45;1.70;;;;;;;11.00;29.14;100202.59;4975596;28;20073;-74
2022/04/29 08:07:37;;;;;;;3.33;1.77;;;;;;;11.05;28.67;100196.53;4980688;28;20050;-75
2022/04/29 08:10:04;;;;;;;4.00;2.10;;;;;;;11.53;28.40;100194.84;4996425;28;20395;-76
2022/04/29 08:12:30;;;;;;;5.25;1.90;;;;;;;11.94;26.92;100204.41;4976368;28;20497;-75
2022/04/29 08:15:15;;;;;;;6.35;2.30;;;;;;;12.12;26.30;100178.38;5021131;28;20033;-74
2022/04/29 08:17:59;;;;;;;5.35;2.17;;;;;;;12.07;26.20;100206.13;5021102;28;20058;-75
2022/04/29 08:20:26;;;;;;;5.40;1.80;;;;;;;12.36;26.17;100197.41;5024879;28;20042;-76
2022/04/29 08:22:51;;;;;;;;;;;;;;;12.54;25.70;100189.53;4948200;28;20544;-75
2022/04/29 08:25:19;;;;;;;6.38;1.90;;;;;;;12.73;25.44;100191.19;5008710;28;19976;-75
2022/04/29 08:27:46;;;;;;;3.95;1.92;;;;;;;12.67;25.48;100193.81;4994875;28;20041;-77
2022/04/29 08:30:12;;;;;;;4.32;1.98;;;;;;;12.51;25.37;100194.78;4998446;28;20445;-76
2022/04/29 08:32:41;;;;;;;;;;;;;;;12.55;25.33;100195.59;4989624;28;20092;-76
2022/04/29 08:35:14;;;;;;;3.55;1.65;;;;;;;12.83;24.88;100189.44;5015460;28;19922;-75
2022/04/29 08:37:40;;;;;;;;;;;;;;;12.70;24.88;100187.75;4971037;28;20073;-76
2022/04/29 08:40:07;;;;;;;2.70;1.60;;;;;;;12.71;25.09;100153.91;5008391;28;20025;-75
2022/04/29 08:42:37;;;;;;;5.13;2.30;;;;;;;13.29;24.76;100150.13;4981676;28;20088;-77
2022/04/29 08:45:13;;;;;;;4.45;2.28;;;;;;;13.48;24.28;100161.25;4960345;28;20042;-75
2022/04/29 08:47:59;;;;;;;4.30;1.92;;;;;;;13.87;23.86;100165.25;5018601;28;20054;-75
2022/04/29 08:50:31;;;;;;;6.10;2.10;;;;;;;13.93;24.02;100169.56;5025183;28;20048;-76
2022/04/29 08:52:57;;;;;;;;;;;;;;;14.23;22.90;100169.22;5008957;28;20132;-74
2022/04/29 09:00:52;;;;;;;4.47;1.95;;;;;;;12.67;25.43;100115.75;4980095;28;20073;-76
2022/04/29 09:03:20;;;;;;;5.50;2.90;;;;;;;12.24;26.78;100161.03;5008794;28;20121;-76
2022/04/29 09:05:47;;;;;;;4.93;2.17;;;;;;;12.28;25.86;100126.31;5007596;28;20510;-76
2022/04/29 09:08:14;;;;;;;5.07;2.40;;;;;;;12.27;25.91;100130.66;4992125;28;20034;-77
2022/04/29 09:11:00;;;;;;;4.68;2.33;;;;;;;12.85;24.96;100156.44;5024599;28;20170;-76
2022/04/29 09:13:27;;;;;;;4.93;2.13;;;;;;;13.26;23.49;100162.28;4976510;28;20042;-76
2022/04/29 09:16:10;;;;;;;3.65;1.90;;;;;;;13.53;23.07;100136.03;4979882;28;20405;-79
2022/04/29 09:18:51;;;;;;;6.55;2.22;;;;;;;13.74;22.97;100129.72;4977335;28;20050;-81
2022/04/29 09:21:19;;;;;;;4.38;1.88;;;;;;;14.63;22.08;100142.69;5009847;28;20037;-78
2022/04/29 09:23:49;;;;;;;4.18;2.20;;;;;;;15.22;22.15;100122.69;4979411;28;20030;-81
2022/04/29 09:26:28;;;;;;;3.92;2.03;;;;;;;15.56;21.66;100150.88;5025888;28;20057;-79
2022/04/29 09:29:14;;;;;;;3.10;1.80;;;;;;;15.06;21.67;100136.84;5007375;28;20416;-80
2022/04/29 09:32:09;;;;;;;6.00;2.05;;;;;;;14.88;21.74;100134.50;5005757;28;20401;-77
2022/04/29 09:34:54;;;;;;;3.90;2.60;;;;;;;15.09;21.03;100120.28;5007294;28;20054;-78
2022/04/29 09:37:27;;;;;;;3.95;2.17;;;;;;;15.14;20.88;100134.16;4980264;28;20054;-79
2022/04/29 09:39:53;;;;;;;3.20;1.90;;;;;;;15.48;20.79;100135.31;4994521;28;20048;-78
2022/04/29 09:42:18;;;;;;;;;;;;;;;15.90;20.10;100132.03;4995058;28;20133;-77
2022/04/29 09:44:46;;;;;;;5.45;2.67;;;;;;;16.47;19.67;100118.69;5021542;28;19918;-80
2022/04/29 09:47:14;;;;;;;5.45;3.00;;;;;;;16.56;19.44;100113.25;4946875;29;20035;-78
2022/04/29 09:49:41;;;;;;;5.70;3.08;;;;;;;16.45;19.81;100120.50;4988131;28;20042;-81
2022/04/29 09:52:07;;;;;;;4.40;2.90;;;;;;;16.52;19.50;100101.97;5026975;28;20034;-79
2022/04/29 09:54:39;;;;;;;3.67;2.50;;;;;;;17.28;19.21;100107.28;5010285;28;20046;-78
2022/04/29 09:57:12;;;;;;;3.35;2.40;;;;;;;16.75;19.95;100106.75;5011162;28;20382;-79
2022/04/29 09:59:42;;;;;;;8.20;3.03;;;;;;;15.87;20.36;100096.31;5011884;28;20135;-81
2022/04/29 10:02:13;;;;;;;3.97;2.65;;;;;;;15.60;20.93;100087.19;5013888;28;20133;-79
2022/04/29 10:04:44;;;;;;;4.25;3.00;;;;;;;15.44;20.30;100086.59;4993615;28;20057;-81
2022/04/29 10:07:11;;;;;;;5.78;2.70;;;;;;;14.94;21.15;100105.72;5010474;28;20139;-78
2022/04/29 10:09:40;;;;;;;4.07;2.88;;;;;;;14.10;22.17;100110.22;4994306;28;20033;-78
2022/04/29 10:12:14;;;;;;;4.28;2.70;;;;;;;13.30;23.27;100120.56;5010736;28;20086;-81
2022/04/29 10:14:45;;;;;;;4.68;2.80;;;;;;;13.24;23.34;100102.41;4994888;28;20034;-79
2022/04/29 10:23:17;;;;;;;4.22;2.20;;;;;;;16.09;21.31;100109.00;5025125;28;20054;-78
2022/04/29 10:25:43;;;;;;;;;;;;;;;16.05;19.87;100113.44;5028726;28;20081;-81
2022/04/29 10:28:09;;;;;;;4.57;2.10;;;;;;;16.30;20.11;100097.22;5008740;28;19921;-79
2022/04/29 10:30:35;;;;;;;3.50;2.20;;;;;;;16.82;19.87;100107.50;4986248;28;20039;-79
2022/04/29 10:33:08;;;;;;;4.97;1.95;;;;;;;16.55;20.45;100092.34;5010985;28;20047;-81
2022/04/29 10:35:40;;;;;;;3.50;1.70;;;;;;;16.37;20.71;100109.31;5019041;28;20055;-78
2022/04/29 10:38:31;;;;;;;3.30;1.80;;;;;;;15.44;21.46;100112.75;4997116;28;20402;-83
2022/04/29 10:41:06;;;;;;;4.55;2.00;;;;;;;14.31;22.11;100110.88;5017774;28;20094;-80
2022/04/29 10:43:53;;;;;;;3.72;1.75;;;;;;;14.03;23.01;100092.06;4983168;28;20034;-80
2022/04/29 10:46:22;;;;;;;3.15;1.70;;;;;;;13.71;23.46;100086.31;5003703;28;20505;-78
2022/04/29 10:49:24;;;;;;;3.55;1.90;;;;;;;13.53;23.87;100096.91;5011814;28;20137;-79
2022/04/29 10:52:26;;;;;;;3.97;2.20;;;;;;;13.50;23.97;100091.72;5024927;28;20048;-78
2022/04/29 10:55:21;;;;;;;4.00;2.92;;;;;;;14.13;23.75;100052.81;5011154;28;20042;-78
2022/04/29 10:58:21;;;;;;;4.03;2.20;;;;;;;14.98;22.53;100091.69;5011081;28;20539;-80
2022/04/29 11:01:14;;;;;;;5.15;2.10;;;;;;;15.14;21.98;100082.75;5013079;28;20042;-80
2022/04/29 11:03:43;;;;;;;3.08;2.00;;;;;;;15.33;21.45;100065.00;5005295;28;20053;-78
2022/04/29 11:06:13;;;;;;;3.33;1.83;;;;;;;16.06;21.00;100068.03;4984809;28;20030;-81
2022/04/29 11:08:39;;;;;;;5.35;1.98;;;;;;;16.29;20.79;100062.34;5013474;28;20053;-81
2022/04/29 11:11:05;;;;;;;4.70;1.88;;;;;;;15.95;20.80;100059.56;5014546;28;20038;-81
2022/04/29 11:13:58;;;;;;;3.15;1.60;;;;;;;15.69;21.10;100044.34;4995807;28;20416;-79
2022/04/29 11:16:53;;;;;;;4.18;1.67;;;;;;;14.80;21.69;100066.75;4963380;28;20069;-81
2022/04/29 11:19:45;;;;;;;2.72;1.83;;;;;;;14.90;21.88;100051.78;4966692;28;20050;-79
2022/04/29 11:25:04;;;;;;;4.20;1.80;;;;;;;14.14;23.12;100048.44;4982190;28;20038;-81
2022/04/29 11:27:50;;;;;;;3.63;1.90;;;;;;;14.02;23.03;100041.66;4979329;28;20545;-80
2022/04/29 11:30:36;;;;;;;3.17;1.70;;;;;;;13.97;23.11;100041.72;5010470;28;20054;-82
2022/04/29 11:33:10;;;;;;;4.50;1.88;;;;;;;13.79;23.51;100030.59;4967965;28;20599;-82
2022/04/29 11:35:36;;;;;;;4.50;2.20;;;;;;;13.75;23.49;100045.44;4988471;28;20145;-80
2022/04/29 11:38:01;;;;;;;3.60;1.83;;;;;;;13.60;23.74;100020.38;4999629;28;20051;-80
2022/04/29 11:40:28;;;;;;;4.18;1.80;;;;;;;14.56;23.10;100033.13;5004062;28;20042;-81
2022/04/29 11:42:53;;;;;;;6.90;2.17;;;;;;;15.87;21.85;100027.44;5006568;28;20040;-78
2022/04/29 11:45:22;;;;;;;4.30;1.70;;;;;;;15.93;21.02;100012.47;4995633;28;20092;-80
2022/04/29 11:48:07;;;;;;;4.90;1.65;;;;;;;15.74;21.13;100022.44;4995409;28;20038;-81
2022/04/29 11:50:33;;;;;;;4.47;1.90;;;;;;;16.41;21.05;99990.53;4996898;28;20069;-83
2022/04/29 11:53:09;;;;;;;4.00;2.20;;;;;;;17.50;19.94;100015.81;5013122;28;20038;-78
2022/04/29 11:55:36;;;;;;;2.58;1.50;;;;;;;17.86;19.14;100020.09;4996690;28;20042;-81
2022/04/29 11:58:01;;;;;;;3.85;1.40;;;;;;;17.52;19.54;100002.63;4995714;28;20086;-77
2022/04/29 12:00:34;;;;;;;4.15;1.48;;;;;;;17.78;20.07;100021.19;4996454;28;20109;-79
2022/04/29 12:03:00;;;;;;;2.75;1.30;;;;;;;17.59;19.24;99991.06;4996357;28;20106;-80
2022/04/29 12:05:29;;;;;;;4.47;1.40;;;;;;;17.54;19.48;99975.44;4995358;28;20049;-82
2022/04/29 12:08:00;;;;;;;4.95;1.52;;;;;;;17.89;18.99;99986.75;4994799;28;20069;-79
2022/04/29 12:10:35;;;;;;;4.25;1.45;;;;;;;18.67;18.75;99994.03;5010679;28;20042;-80
2022/04/29 12:13:02;;;;;;;3.28;1.65;;;;;;;18.88;18.27;100006.53;5010891;28;20489;-82
2022/04/29 12:15:34;;;;;;;4.32;1.50;;;;;;;18.61;18.34;100000.34;4995116;28;20428;-79
2022/04/29 12:18:02;;;;;;;4.47;1.23;;;;;;;18.27;18.65;99985.59;5010824;28;20057;-83
2022/04/29 12:20:28;;;;;;;3.30;1.20;;;;;;;18.20;18.73;99975.34;4979350;28;20038;-82
2022/04/29 12:22:54;;;;;;;2.15;1.13;;;;;;;17.90;19.56;99966.63;5012433;28;20050;-83